Weather at Geneva Cointrin International Airport

Public forecast

Using degrees Celsius for public forecast. Weather courtesy of forecast.io.

Current aviation weather report (METAR) for Geneva Cointrin International Airport

Retrieved 2021/09/26 00:20 UTC (33 minutes ago):

LSGG 260020Z AUTO VRB01KT 9999 FEW085 //////TCU 16/15 Q1018 NOSIG

Aviation forecast (TAF) for Geneva Cointrin International Airport

Retrieved 2021-09-26 00:33 UTC (20 minutes ago):

TAF TAF LSGG 252325Z 2600/2706 VRB02KT 9999 FEW040 SCT070 TX19/2615Z TN14/2605Z TN11/2705Z PROB40 TEMPO 2605/2612 SHRA SCT040 BKN060 PROB30 TEMPO 2607/2612 TSRA SCT050CB BECMG 2607/2609 23008KT BECMG 2616/2618 VRB02KT